Portada
METAR-TAF:

METAR-TAF

Aeroports :

Tuggurt, Algèria

latitud: 33-07N, longitud: 006-08E, altitud: 85 m

Observació

L'informe es va fer fa 35 minuts, a les 20:00 UTC
Vent 4 kt del Nord-Est
Temperatura 29°C
Humitat 18%
Pressió 1018 hPa
Visibilitat 10 km o més
Escasses núvols a una alçada de 4000 ft
Núvols disperses a una alçada de 23300 ft

METAR: DAUK 252000Z 05004KT 9999 FEW040 SCT233 29/02 Q1018

Hora: 21:35 (20:35 UTC)

Pronòstic

L'informe es va fer fa 3 hores i 35 minuts, a les 17:00 UTC
Pronòstic vàlid del 25 a les 18 UTC al 26 a les 03 UTC
Vent 8 kt del Nord-Est
Visibilitat 10 km o més
Núvols disperses a una alçada de 4000 ft
Núvols disperses a una alçada de 20000 ft
Probabilitat 40% :
Temporalment
l' 25 a les 18 UTC al 25 a les 21 UTC
Visibilitat: 4000 m
Escasses núvols a una alçada de 4000 ft, Cumulonimbus.
calitja

TAF: DAUK 251700Z 2518/2603 05008KT 9999 SCT040 SCT200 PROB40 TEMPO 2518/2521 4000 HZ FEW040CB

Observacions i pronòstics meteorològics de més de 4000 aeroports (METAR i TAF).

Les estacions disponibles són els punts grocs i vermells al mapa.

Posi el ratolí al punt desitjat per veure el nom de l'estació.

Feu clic per veure les observacions i els pronòstics meteorològics.

Per canviar el mapa: feu clic els botons verds amb una creu de color negre per apropar; al botó verd amb un guió per allunyar la imatge; o en les fletxes verdes per a mapes adjacents.


METAR-TAF: